createdAt,value
2022-08-20T00:00:30.851Z,19.30
2022-08-20T00:03:01.727Z,19.20
2022-08-20T00:05:34.404Z,19.20
2022-08-20T00:08:01.916Z,19.30
2022-08-20T00:10:31.170Z,19.20
2022-08-20T00:12:58.497Z,19.20
2022-08-20T00:15:31.739Z,19.10
2022-08-20T00:17:59.325Z,19.00
2022-08-20T00:20:29.486Z,19.00
2022-08-20T00:22:57.808Z,19.10
2022-08-20T00:25:28.509Z,19.10
2022-08-20T00:27:56.958Z,19.10
2022-08-20T00:30:25.601Z,19.00
2022-08-20T00:32:58.774Z,19.10
2022-08-20T00:35:29.234Z,19.00
2022-08-20T00:38:00.076Z,19.00
2022-08-20T00:40:40.410Z,19.10
2022-08-20T00:43:23.486Z,19.20
2022-08-20T00:45:51.286Z,19.20
2022-08-20T00:48:18.669Z,19.10
2022-08-20T00:50:45.731Z,19.00
2022-08-20T00:53:12.791Z,19.00
2022-08-20T00:55:39.947Z,19.00
2022-08-20T00:58:09.740Z,18.90
2022-08-20T01:00:41.916Z,18.80
2022-08-20T01:03:11.466Z,18.90
2022-08-20T01:05:41.268Z,18.80
2022-08-20T01:08:09.235Z,18.80
2022-08-20T01:10:38.951Z,18.80
2022-08-20T01:13:10.115Z,18.90
2022-08-20T01:15:43.385Z,18.80
2022-08-20T01:18:14.775Z,18.70
2022-08-20T01:20:46.607Z,18.70
2022-08-20T01:23:32.764Z,18.70
2022-08-20T01:26:06.997Z,18.70
2022-08-20T01:28:57.184Z,18.70
2022-08-20T01:31:27.298Z,18.70
2022-08-20T01:33:57.162Z,18.60
2022-08-20T01:36:31.542Z,18.70
2022-08-20T01:38:59.536Z,18.60
2022-08-20T01:41:43.980Z,18.70
2022-08-20T01:44:17.014Z,18.80
2022-08-20T01:46:47.890Z,18.70
2022-08-20T01:49:21.130Z,18.70
2022-08-20T01:51:52.078Z,18.70
2022-08-20T01:54:19.287Z,18.60
2022-08-20T01:57:03.941Z,18.50
2022-08-20T01:59:31.358Z,18.40
2022-08-20T02:01:59.418Z,18.40
2022-08-20T02:04:27.169Z,18.40
2022-08-20T02:06:58.201Z,18.40
2022-08-20T02:09:31.291Z,18.30
2022-08-20T02:11:58.558Z,18.30
2022-08-20T02:14:26.798Z,18.30
2022-08-20T02:16:54.667Z,18.20
2022-08-20T02:19:38.414Z,18.30
2022-08-20T02:22:29.031Z,18.30
2022-08-20T02:24:56.865Z,18.30
2022-08-20T02:27:24.465Z,18.30
2022-08-20T02:29:52.748Z,18.30
2022-08-20T02:32:25.141Z,18.20
2022-08-20T02:35:03.823Z,18.20
2022-08-20T02:37:31.854Z,18.10
2022-08-20T02:39:59.248Z,18.10
2022-08-20T02:42:26.679Z,18.00
2022-08-20T02:44:54.564Z,18.00
2022-08-20T02:47:21.593Z,17.90
2022-08-20T02:49:48.547Z,18.00
2022-08-20T02:52:15.496Z,18.00
2022-08-20T02:54:42.444Z,17.90
2022-08-20T02:57:20.424Z,17.90
2022-08-20T02:59:48.604Z,17.90
2022-08-20T03:02:15.843Z,18.00
2022-08-20T03:04:43.162Z,18.00
2022-08-20T03:07:14.628Z,18.20
2022-08-20T03:09:42.176Z,18.10
2022-08-20T03:12:09.843Z,18.20
2022-08-20T03:14:37.738Z,18.30
2022-08-20T03:17:05.134Z,18.20
2022-08-20T03:19:32.183Z,18.10
2022-08-20T03:21:59.177Z,18.30
2022-08-20T03:24:26.148Z,18.30
2022-08-20T03:26:53.075Z,18.30
2022-08-20T03:29:20.016Z,18.30
2022-08-20T03:31:47.144Z,18.40
2022-08-20T03:34:14.141Z,18.30
2022-08-20T03:36:41.213Z,18.30
2022-08-20T03:39:13.432Z,18.30
2022-08-20T03:41:40.475Z,18.40
2022-08-20T03:44:07.521Z,18.40
2022-08-20T03:46:35.054Z,18.60
2022-08-20T03:49:02.171Z,18.60
2022-08-20T03:51:30.791Z,18.60
2022-08-20T03:53:59.033Z,18.60
2022-08-20T03:56:27.420Z,18.60
2022-08-20T03:58:56.428Z,18.60
2022-08-20T04:01:44.355Z,18.60
2022-08-20T04:04:12.834Z,18.60
2022-08-20T04:06:42.412Z,18.60
2022-08-20T04:09:12.142Z,18.50
2022-08-20T04:11:40.977Z,18.50
2022-08-20T04:14:09.269Z,18.50
2022-08-20T04:16:40.395Z,18.60
2022-08-20T04:19:09.471Z,18.80
2022-08-20T04:21:37.037Z,18.80
2022-08-20T04:24:05.639Z,18.80
2022-08-20T04:26:36.498Z,18.80
2022-08-20T04:29:06.136Z,18.90
2022-08-20T04:31:33.704Z,19.00
2022-08-20T04:34:03.157Z,19.10
2022-08-20T04:36:30.541Z,19.00
2022-08-20T04:38:57.588Z,19.10
2022-08-20T04:41:24.818Z,19.20
2022-08-20T04:43:56.388Z,19.30
2022-08-20T04:46:29.824Z,19.40
2022-08-20T04:48:58.025Z,19.20
2022-08-20T04:51:26.900Z,19.10
2022-08-20T04:53:56.451Z,19.20
2022-08-20T04:56:26.538Z,19.20
2022-08-20T04:58:55.581Z,19.30
2022-08-20T05:01:23.942Z,19.50
2022-08-20T05:03:51.370Z,19.60
2022-08-20T05:06:18.845Z,19.50
2022-08-20T05:08:46.028Z,19.40
2022-08-20T05:11:32.706Z,19.40
2022-08-20T05:14:01.719Z,19.40
2022-08-20T05:16:28.889Z,19.70
2022-08-20T05:18:55.886Z,19.70
2022-08-20T05:21:23.098Z,19.70
2022-08-20T05:23:50.150Z,20.00
2022-08-20T05:26:20.077Z,20.10
2022-08-20T05:28:58.819Z,20.00
2022-08-20T05:31:32.412Z,19.80
2022-08-20T05:34:10.719Z,19.90
2022-08-20T05:36:43.072Z,20.00
2022-08-20T05:39:11.242Z,20.00
2022-08-20T05:41:39.571Z,20.10
2022-08-20T05:44:13.567Z,20.10
2022-08-20T05:46:43.757Z,20.60
2022-08-20T05:49:13.779Z,20.30
2022-08-20T05:51:40.860Z,20.20
2022-08-20T05:54:08.050Z,20.20
2022-08-20T05:56:36.095Z,20.40
2022-08-20T05:59:05.488Z,20.70
2022-08-20T06:01:34.145Z,21.00
2022-08-20T06:04:19.723Z,21.10
2022-08-20T06:06:47.721Z,21.10
2022-08-20T06:09:30.871Z,21.50
2022-08-20T06:11:59.674Z,21.50
2022-08-20T06:14:26.770Z,21.50
2022-08-20T06:16:57.713Z,21.60
2022-08-20T06:19:26.949Z,21.80
2022-08-20T06:21:56.594Z,21.70
2022-08-20T06:24:25.026Z,21.50
2022-08-20T06:27:02.071Z,21.30
2022-08-20T06:29:29.753Z,21.10
2022-08-20T06:31:57.226Z,21.10
2022-08-20T06:34:28.371Z,21.20
2022-08-20T06:36:59.257Z,21.40
2022-08-20T06:39:31.195Z,21.60
2022-08-20T06:41:58.834Z,21.60
2022-08-20T06:44:26.108Z,21.50
2022-08-20T06:46:53.087Z,21.50
2022-08-20T06:49:20.018Z,21.70
2022-08-20T06:51:46.957Z,21.70
2022-08-20T06:54:19.162Z,21.60
2022-08-20T06:56:47.064Z,21.70
2022-08-20T06:59:14.120Z,21.90
2022-08-20T07:01:41.173Z,22.10
2022-08-20T07:04:08.575Z,21.90
2022-08-20T07:06:35.546Z,21.90
2022-08-20T07:09:02.488Z,21.60
2022-08-20T07:11:29.493Z,21.50
2022-08-20T07:13:58.392Z,21.60
2022-08-20T07:16:26.346Z,21.80
2022-08-20T07:18:53.586Z,21.90
2022-08-20T07:21:20.544Z,21.80
2022-08-20T07:23:49.029Z,21.80
2022-08-20T07:26:16.670Z,21.80
2022-08-20T07:28:43.727Z,22.00
2022-08-20T07:31:31.300Z,22.20
2022-08-20T07:33:58.691Z,22.40
2022-08-20T07:36:28.269Z,22.60
2022-08-20T07:38:56.965Z,22.60
2022-08-20T07:41:24.613Z,22.30
2022-08-20T07:43:51.666Z,22.10
2022-08-20T07:46:21.960Z,22.10
2022-08-20T07:48:50.537Z,22.10
2022-08-20T07:51:22.457Z,22.10
2022-08-20T07:53:52.913Z,22.20
2022-08-20T07:56:22.841Z,22.20
2022-08-20T07:58:55.390Z,22.10
2022-08-20T08:01:30.528Z,22.10
2022-08-20T08:03:59.146Z,22.10
2022-08-20T08:06:30.196Z,22.10
2022-08-20T08:09:08.842Z,22.20
2022-08-20T08:11:38.881Z,22.00
2022-08-20T08:14:10.012Z,22.00
2022-08-20T08:16:38.056Z,22.20
2022-08-20T08:19:08.424Z,22.00
2022-08-20T08:21:35.760Z,22.10
2022-08-20T08:24:03.548Z,22.00
2022-08-20T08:26:30.759Z,21.90
2022-08-20T08:29:00.394Z,21.80
2022-08-20T08:31:27.837Z,21.60
2022-08-20T08:33:56.574Z,21.50
2022-08-20T08:36:24.808Z,21.30
2022-08-20T08:38:51.765Z,21.20
2022-08-20T08:41:26.411Z,21.20
2022-08-20T08:43:54.771Z,21.40
2022-08-20T08:46:27.395Z,21.30
2022-08-20T08:48:57.849Z,21.50
2022-08-20T08:51:40.608Z,21.40
2022-08-20T08:54:08.620Z,21.40
2022-08-20T08:56:36.591Z,21.70
2022-08-20T08:59:08.738Z,21.50
2022-08-20T09:01:55.499Z,21.40
2022-08-20T09:04:31.620Z,21.40
2022-08-20T09:06:59.531Z,21.60
2022-08-20T09:09:32.249Z,21.70
2022-08-20T09:12:06.335Z,21.70
2022-08-20T09:14:33.724Z,21.30
2022-08-20T09:17:00.657Z,21.10
2022-08-20T09:19:27.831Z,21.10
2022-08-20T09:21:54.779Z,21.20
2022-08-20T09:24:21.829Z,21.40
2022-08-20T09:26:49.078Z,21.50
2022-08-20T09:29:16.224Z,21.60
2022-08-20T09:31:43.929Z,21.70
2022-08-20T09:34:12.287Z,21.70
2022-08-20T09:36:39.254Z,21.40
2022-08-20T09:39:06.282Z,21.10
2022-08-20T09:41:33.747Z,21.00
2022-08-20T09:44:02.118Z,21.00
2022-08-20T09:46:29.141Z,21.10
2022-08-20T09:48:56.134Z,21.30
2022-08-20T09:51:23.476Z,21.30
2022-08-20T09:53:50.737Z,21.50
2022-08-20T09:56:19.464Z,21.60
2022-08-20T09:58:52.919Z,21.80
2022-08-20T10:01:22.657Z,21.90
2022-08-20T10:03:51.189Z,21.70
2022-08-20T10:06:20.787Z,21.50
2022-08-20T10:08:50.160Z,21.50
2022-08-20T10:11:18.200Z,21.60
2022-08-20T10:13:45.642Z,21.60
2022-08-20T10:16:12.706Z,21.70
2022-08-20T10:18:39.807Z,21.70
2022-08-20T10:21:13.110Z,21.60
2022-08-20T10:23:40.104Z,21.40
2022-08-20T10:26:12.913Z,21.20
2022-08-20T10:28:40.341Z,21.20
2022-08-20T10:31:11.891Z,21.20
2022-08-20T10:33:41.035Z,21.20
2022-08-20T10:36:16.430Z,21.50
2022-08-20T10:38:44.904Z,21.70
2022-08-20T10:41:12.174Z,22.00
2022-08-20T10:43:39.167Z,22.10
2022-08-20T10:46:06.398Z,22.20
2022-08-20T10:48:33.611Z,22.30
2022-08-20T11:05:48.792Z,22.50
2022-08-20T11:08:15.789Z,22.50
2022-08-20T11:11:00.912Z,22.40
2022-08-20T11:13:30.389Z,22.50
2022-08-20T11:15:57.290Z,22.40
2022-08-20T11:18:25.316Z,22.40
2022-08-20T11:20:52.578Z,22.40
2022-08-20T11:23:20.502Z,22.30
2022-08-20T11:25:48.186Z,22.10
2022-08-20T11:28:15.891Z,21.70
2022-08-20T11:30:42.929Z,21.70
2022-08-20T11:33:09.958Z,21.70
2022-08-20T11:35:49.102Z,21.70
2022-08-20T11:38:19.189Z,21.70
2022-08-20T11:40:47.687Z,21.80
2022-08-20T11:43:16.896Z,21.80
2022-08-20T11:45:55.565Z,21.90
2022-08-20T11:48:22.923Z,21.90
2022-08-20T11:50:50.265Z,21.90
2022-08-20T11:53:17.916Z,22.10
2022-08-20T11:55:45.204Z,22.20
2022-08-20T11:58:12.731Z,22.20
2022-08-20T12:00:39.731Z,22.20
2022-08-20T12:03:09.372Z,22.10
2022-08-20T12:05:38.520Z,22.20
2022-08-20T12:08:06.803Z,22.30
2022-08-20T12:10:34.278Z,22.40
2022-08-20T12:13:02.641Z,22.40
2022-08-20T12:15:32.819Z,22.40
2022-08-20T12:18:00.133Z,22.30
2022-08-20T12:20:29.418Z,22.20
2022-08-20T12:22:56.822Z,22.10
2022-08-20T12:25:23.928Z,22.10
2022-08-20T12:27:50.997Z,22.20
2022-08-20T12:30:21.104Z,22.20
2022-08-20T12:32:48.844Z,22.20
2022-08-20T12:35:17.617Z,22.10
2022-08-20T12:37:47.013Z,22.00
2022-08-20T12:40:29.490Z,21.90
2022-08-20T12:43:01.416Z,21.80
2022-08-20T12:45:29.038Z,21.80
2022-08-20T12:48:06.094Z,21.70
2022-08-20T12:50:33.888Z,21.60
2022-08-20T12:53:05.256Z,21.50
2022-08-20T12:55:32.787Z,21.60
2022-08-20T12:58:02.609Z,21.70
2022-08-20T13:00:44.355Z,21.90
2022-08-20T13:03:14.610Z,22.00
2022-08-20T13:05:42.078Z,22.10
2022-08-20T13:08:11.641Z,22.10
2022-08-20T13:10:44.511Z,22.20
2022-08-20T13:13:20.337Z,22.20
2022-08-20T13:15:49.196Z,22.20
2022-08-20T13:18:16.488Z,22.20
2022-08-20T13:20:43.620Z,22.20
2022-08-20T13:23:10.891Z,22.20
2022-08-20T13:25:37.919Z,22.00
2022-08-20T13:28:05.701Z,22.10
2022-08-20T13:30:39.109Z,22.00
2022-08-20T13:33:09.962Z,21.90
2022-08-20T13:35:36.966Z,21.90
2022-08-20T13:38:04.415Z,22.00
2022-08-20T13:40:31.660Z,22.10
2022-08-20T13:43:03.178Z,22.10
2022-08-20T13:45:33.132Z,22.10
2022-08-20T13:48:00.108Z,22.20
2022-08-20T13:50:28.097Z,22.20
2022-08-20T13:52:56.290Z,22.20
2022-08-20T13:55:25.462Z,22.40
2022-08-20T13:57:55.784Z,22.50
2022-08-20T14:00:34.222Z,22.50
2022-08-20T14:03:06.741Z,22.50
2022-08-20T14:05:34.832Z,22.30
2022-08-20T14:08:22.867Z,22.20
2022-08-20T14:10:51.322Z,22.40
2022-08-20T14:13:21.221Z,22.60
2022-08-20T14:15:48.294Z,22.80
2022-08-20T14:18:16.103Z,22.90
2022-08-20T14:20:45.559Z,22.90
2022-08-20T14:23:13.000Z,22.90
2022-08-20T14:25:40.093Z,22.80
2022-08-20T14:28:18.175Z,22.80
2022-08-20T14:30:46.238Z,22.70
2022-08-20T14:33:23.016Z,22.70
2022-08-20T14:35:52.030Z,22.60
2022-08-20T14:38:19.250Z,22.60
2022-08-20T14:40:47.398Z,22.50
2022-08-20T14:43:14.996Z,22.60
2022-08-20T14:45:41.965Z,22.60
2022-08-20T14:48:11.877Z,22.70
2022-08-20T14:50:40.010Z,22.70
2022-08-20T14:53:07.106Z,22.60
2022-08-20T14:55:38.045Z,22.70
2022-08-20T14:58:10.183Z,22.70
2022-08-20T15:00:37.422Z,22.60
2022-08-20T15:03:04.510Z,22.60
2022-08-20T15:05:31.684Z,22.70
2022-08-20T15:07:59.311Z,22.80
2022-08-20T15:10:29.717Z,22.90
2022-08-20T15:12:57.059Z,22.80
2022-08-20T15:15:25.676Z,22.80
2022-08-20T15:17:57.122Z,22.90
2022-08-20T15:20:29.323Z,22.90
2022-08-20T15:22:57.929Z,22.90
2022-08-20T15:25:36.371Z,22.90
2022-08-20T15:28:06.807Z,22.90
2022-08-20T15:30:35.219Z,22.90
2022-08-20T15:33:02.660Z,22.80
2022-08-20T15:35:30.517Z,22.80
2022-08-20T15:37:59.765Z,22.80
2022-08-20T15:40:30.786Z,22.80
2022-08-20T15:43:00.754Z,22.80
2022-08-20T15:45:29.016Z,22.80
2022-08-20T15:48:01.649Z,22.70
2022-08-20T15:50:49.217Z,22.80
2022-08-20T15:54:01.191Z,22.80
2022-08-20T15:56:49.344Z,22.80
2022-08-20T15:59:38.549Z,22.70
2022-08-20T16:02:46.960Z,22.80
2022-08-20T16:05:41.416Z,22.70
2022-08-20T16:08:34.691Z,22.70
2022-08-20T16:11:27.273Z,22.60
2022-08-20T16:14:04.927Z,22.50
2022-08-20T16:16:35.923Z,22.40
2022-08-20T16:19:03.248Z,22.40
2022-08-20T16:21:36.995Z,22.40
2022-08-20T16:24:06.697Z,22.40
2022-08-20T16:26:58.061Z,22.40
2022-08-20T16:29:43.091Z,22.50
2022-08-20T16:32:17.306Z,22.50
2022-08-20T16:35:29.041Z,22.60
2022-08-20T16:38:24.613Z,22.60
2022-08-20T16:40:59.603Z,22.60
2022-08-20T16:43:35.310Z,22.60
2022-08-20T16:46:10.739Z,22.60
2022-08-20T16:48:42.377Z,22.60
2022-08-20T16:51:20.329Z,22.60
2022-08-20T16:53:49.050Z,22.70
2022-08-20T16:56:29.902Z,22.70
2022-08-20T16:59:01.442Z,22.60
2022-08-20T17:01:28.446Z,22.60
2022-08-20T17:03:56.545Z,22.60
2022-08-20T17:06:39.914Z,22.50
2022-08-20T17:09:33.478Z,22.40
2022-08-20T17:12:28.707Z,22.40
2022-08-20T17:14:58.056Z,22.30
2022-08-20T17:17:33.331Z,22.20
2022-08-20T17:20:20.760Z,22.10
2022-08-20T17:23:11.085Z,22.00
2022-08-20T17:25:38.577Z,21.90
2022-08-20T17:28:17.693Z,21.90
2022-08-20T17:30:46.276Z,21.80
2022-08-20T17:33:38.830Z,21.70
2022-08-20T17:36:17.223Z,21.60
2022-08-20T17:39:01.549Z,21.60
2022-08-20T17:41:36.432Z,21.50
2022-08-20T17:44:07.858Z,21.50
2022-08-20T17:46:41.685Z,21.50
2022-08-20T17:49:12.204Z,21.40
2022-08-20T17:51:46.143Z,21.30
2022-08-20T17:54:22.275Z,21.20
2022-08-20T17:56:54.242Z,21.20
2022-08-20T17:59:59.709Z,21.10
2022-08-20T18:02:17.587Z,21.00
2022-08-20T18:04:46.283Z,21.00
2022-08-20T18:07:27.572Z,21.00
2022-08-20T18:10:09.870Z,20.90
2022-08-20T18:12:40.595Z,20.90
2022-08-20T18:15:37.600Z,20.90
2022-08-20T18:18:15.863Z,20.90
2022-08-20T18:21:00.832Z,20.90
2022-08-20T18:23:50.651Z,20.80
2022-08-20T18:26:32.827Z,20.80
2022-08-20T18:29:39.049Z,20.70
2022-08-20T18:32:10.727Z,20.60
2022-08-20T18:34:42.057Z,20.60
2022-08-20T18:37:14.876Z,20.60
2022-08-20T18:39:45.564Z,20.50
2022-08-20T18:42:33.034Z,20.50
2022-08-20T18:45:00.859Z,20.50
2022-08-20T18:47:30.196Z,20.40
2022-08-20T18:50:17.059Z,20.40
2022-08-20T18:52:44.290Z,20.30
2022-08-20T18:55:15.881Z,20.40
2022-08-20T18:57:56.952Z,20.30
2022-08-20T19:00:27.563Z,20.20
2022-08-20T19:03:12.718Z,20.10
2022-08-20T19:05:45.825Z,20.00
2022-08-20T19:08:17.462Z,20.10
2022-08-20T19:10:48.104Z,19.90
2022-08-20T19:13:36.421Z,19.90
2022-08-20T19:16:09.866Z,19.80
2022-08-20T19:18:54.710Z,19.80
2022-08-20T19:21:33.421Z,19.70
2022-08-20T19:24:04.016Z,19.60
2022-08-20T19:26:39.390Z,19.50
2022-08-20T19:29:15.858Z,19.60
2022-08-20T19:31:43.414Z,19.60
2022-08-20T19:34:23.038Z,19.70
2022-08-20T19:36:58.433Z,19.90
2022-08-20T19:39:27.260Z,20.00
2022-08-20T19:42:14.121Z,20.00
2022-08-20T19:44:46.626Z,20.10
2022-08-20T19:47:20.180Z,20.00
2022-08-20T19:50:17.444Z,20.00
2022-08-20T19:53:10.662Z,19.90
2022-08-20T19:55:41.053Z,19.90
2022-08-20T19:58:26.398Z,19.80
2022-08-20T20:00:55.630Z,19.80
2022-08-20T20:03:26.659Z,19.80
2022-08-20T20:06:00.170Z,19.70
2022-08-20T20:08:39.757Z,19.70
2022-08-20T20:11:07.311Z,19.70
2022-08-20T20:13:36.032Z,19.70
2022-08-20T20:16:07.940Z,19.70
2022-08-20T20:18:40.007Z,19.70
2022-08-20T20:21:22.468Z,19.70
2022-08-20T20:24:01.089Z,19.70
2022-08-20T20:26:35.516Z,19.60
2022-08-20T20:29:12.259Z,19.50
2022-08-20T20:32:01.405Z,19.60
2022-08-20T20:34:37.686Z,19.80
2022-08-20T20:37:49.904Z,20.00
2022-08-20T20:40:24.343Z,20.10
2022-08-20T20:43:05.785Z,20.00
2022-08-20T20:45:36.239Z,20.10
2022-08-20T20:48:19.687Z,20.10
2022-08-20T20:50:48.516Z,20.20
2022-08-20T20:53:51.158Z,20.20
2022-08-20T20:56:28.616Z,20.20
2022-08-20T20:58:56.399Z,20.30
2022-08-20T21:01:38.632Z,20.30
2022-08-20T21:04:10.892Z,20.20
2022-08-20T21:06:38.678Z,20.20
2022-08-20T21:09:05.649Z,20.20
2022-08-20T21:11:32.636Z,20.20
2022-08-20T21:13:59.645Z,20.20
2022-08-20T21:16:27.141Z,20.10
2022-08-20T21:18:54.239Z,20.10
2022-08-20T21:21:21.233Z,20.10
2022-08-20T21:23:48.202Z,20.10
2022-08-20T21:26:15.208Z,20.20
2022-08-20T21:28:42.178Z,20.20
2022-08-20T21:31:09.149Z,20.20
2022-08-20T21:33:36.147Z,20.20
2022-08-20T21:36:03.265Z,20.10
2022-08-20T21:38:30.372Z,20.10
2022-08-20T21:40:58.385Z,20.00
2022-08-20T21:43:27.243Z,20.00
2022-08-20T21:46:01.480Z,20.00
2022-08-20T21:48:29.358Z,19.90
2022-08-20T21:50:56.295Z,19.90
2022-08-20T21:53:23.445Z,19.80
2022-08-20T21:55:50.847Z,19.80
2022-08-20T21:58:19.277Z,19.80
2022-08-20T22:00:56.036Z,19.70
2022-08-20T22:03:30.366Z,19.70
2022-08-20T22:05:59.104Z,19.70
2022-08-20T22:08:28.536Z,19.70
2022-08-20T22:10:57.274Z,19.60
2022-08-20T22:13:26.322Z,19.40
2022-08-20T22:15:53.618Z,19.30
2022-08-20T22:18:20.583Z,19.40
2022-08-20T22:20:47.596Z,19.30
2022-08-20T22:23:14.553Z,19.40
2022-08-20T22:25:41.891Z,19.40
2022-08-20T22:28:09.091Z,19.30
2022-08-20T22:30:41.706Z,19.30
2022-08-20T22:33:16.945Z,19.20
2022-08-20T22:35:49.959Z,19.20
2022-08-20T22:38:17.757Z,19.20
2022-08-20T22:40:46.239Z,19.20
2022-08-20T22:43:14.103Z,19.30
2022-08-20T22:45:44.483Z,19.30
2022-08-20T22:48:15.105Z,19.40
2022-08-20T22:50:42.307Z,19.40
2022-08-20T22:53:10.489Z,19.30
2022-08-20T22:55:38.569Z,19.30
2022-08-20T22:58:06.991Z,19.30
2022-08-20T23:00:35.255Z,19.40
2022-08-20T23:03:03.317Z,19.50
2022-08-20T23:05:33.414Z,19.50
2022-08-20T23:08:01.443Z,19.60
2022-08-20T23:10:33.477Z,19.60
2022-08-20T23:13:00.612Z,19.60
2022-08-20T23:15:29.174Z,19.50
2022-08-20T23:18:02.121Z,19.50
2022-08-20T23:20:29.266Z,19.50
2022-08-20T23:22:56.563Z,19.50
2022-08-20T23:25:23.909Z,19.50
2022-08-20T23:27:56.663Z,19.40
2022-08-20T23:30:31.267Z,19.40
2022-08-20T23:32:58.467Z,19.50
2022-08-20T23:35:29.874Z,19.50
2022-08-20T23:38:00.165Z,19.50
2022-08-20T23:40:28.579Z,19.50
2022-08-20T23:42:55.817Z,19.60
2022-08-20T23:45:22.964Z,19.70
2022-08-20T23:47:50.151Z,19.70
2022-08-20T23:50:22.190Z,19.60
2022-08-20T23:52:52.395Z,19.60
2022-08-20T23:55:20.171Z,19.60
2022-08-20T23:57:47.225Z,19.60
